METAR stanice u blizini

 

LYBE - Beograd / Surčin, Srbija
Ažurirano: 26/11/2020 18:00
Mist, Oblačno
Mist, Oblačno
 Pravac vetra varies
Vetar: varies 4 km/h
Temperatura: 0°C
Tačka rose: 0°C
Vlažnost: 100%
Pritisak: 1026 hPa
Pregled: Mist
Oblaci: Oblačno
Vidljivost: 1 km
Cloud details: Oblačno 30 m
2020/11/26 17:00 LYBE 261700Z VRB02KT 1200 R12/1100U R30/1500D BR OVC001 00/00 Q1026 NOSIG
LYBT - Beograd / Batajnica, Srbija
Ažurirano: 26/11/2020 18:00
Magla, Oblačno
Magla, Oblačno
 Pravac vetra S
Vetar: S 6 km/h
Temperatura: 1°C
Tačka rose: 1°C
Vlažnost: 100%
Pritisak: 1026 hPa
Pregled: Magla
Oblaci: Oblačno
Vidljivost: 1 km
Cloud details: Oblačno 61 m
2020/11/26 17:00 LYBT 261700Z 36003KT 320V020 0800 R12/1900D R30/1400U FG VV002 01/01 Q1026 NOSIG
LYVR - Vršac, Srbija
Ažurirano: 26/11/2020 18:00
Magla, Oblačno
Magla, Oblačno
 Pravac vetra varies
Vetar: varies 4 km/h
Temperatura: 0°C
Tačka rose: 0°C
Vlažnost: 100%
Pritisak: 1026 hPa
Pregled: Magla
Oblaci: Oblačno
Vidljivost: 1 km
Cloud details: Oblačno 61 m
2020/11/26 17:00 LYVR 261700Z VRB02KT 0600 R19/0800U R01/0900D FG VV002 00/M00 Q1026
 
LYKV - Lađevci, Srbija
Ažurirano: 26/11/2020 18:00
Mist, Delimično oblačno
Mist, Delimično oblačno
 Pravac vetra varies
Vetar: varies 2 km/h
Temperatura: 0°C
Tačka rose: 0°C
Vlažnost: 100%
Pritisak: 1024 hPa
Pregled: Mist
Oblaci: Partly Cloudy
Vidljivost: 3 km
2020/11/26 17:00 LYKV 261700Z VRB01KT 2500 R31/0250D R13/P2000N BR NSC M00/M00 Q1024 BECMG 0800 FZFG
LYNI - Niš, Srbija
Ažurirano: 26/11/2020 18:00
Partly Cloudy
Partly Cloudy
 Pravac vetra I
Vetar: I 7 km/h
Temperatura: 4°C
Osećaj hladnoće: 2°C
Tačka rose: 0°C
Vlažnost: 75%
Pritisak: 1024 hPa
Oblaci: Partly Cloudy
Vidljivost: 7 km
2020/11/26 17:00 LYNI 261700Z 08004KT 7000 NSC 04/M00 Q1024 NOSIG
BKPR - Priština, Srbija
Ažurirano: 26/11/2020 18:30
Partly Cloudy
Partly Cloudy
 Pravac vetra calm
Vetar: Tišina
Temperatura: 0°C
Tačka rose: -3°C
Vlažnost: 80%
Pritisak: 1024 hPa
Oblaci: Partly Cloudy
Vidljivost: 6 km
2020/11/26 17:30 BKPR 261730Z 00000KT 6000 NSC 00/M03 Q1024 NOSIG RMK 17010095
 
LHPP - Pecs / Pogany, Hungary
Ažurirano: 26/11/2020 18:15
Mist, Oblačno
Mist, Oblačno
 Pravac vetra calm
Vetar: Tišina
Temperatura: 2°C
Tačka rose: 1°C
Vlažnost: 93%
Pritisak: 1025 hPa
Pregled: Mist
Oblaci: Oblačno
Vidljivost: 3 km
Cloud details: Oblačno 305 m
2020/11/26 17:15 LHPP 261715Z 00000KT 3000 BR OVC010 02/01 Q1025
LHUD - Szeged, Hungary
Ažurirano: 04/07/2019 01:45
NOT Current
Vedro
Vedro
 Pravac vetra S
Vetar: S 7 km/h
Temperatura: 18°C
Tačka rose: 13°C
Vlažnost: 73%
Pritisak: 1019 hPa
Pregled: Vedro
Vidljivost: greater than 10 km
2019/07/03 23:45 LHUD 032345Z 35004KT CAVOK 18/13 Q1019
LRTR - Timisoara, Romania
Ažurirano: 26/11/2020 18:00
Magla, Oblačno
Magla, Oblačno
 Pravac vetra SZ
Vetar: SZ 7 km/h
Temperatura: 0°C
Osećaj hladnoće: -3°C
Tačka rose: 0°C
Vlažnost: 100%
Pritisak: 1025 hPa
Pregled: Magla
Oblaci: Oblačno
Vidljivost: 1 km
Cloud details: Oblačno 61 m
2020/11/26 17:00 LRTR 261700Z 32004KT 0900 R11/P2000 R29/1900U FG OVC002 00/00 Q1025
 
LRCV - Craiova, Romania
Ažurirano: 26/11/2020 18:00
Freezing fog, Pretežno oblačno
Freezing fog, Pretežno oblačno
 Pravac vetra Z
Vetar: Z 7 km/h
Temperatura: -2°C
Osećaj hladnoće: -6°C
Tačka rose: -3°C
Vlažnost: 93%
Pritisak: 1023 hPa
Pregled: Freezing Fog
Oblaci: Mostly Cloudy
Vidljivost: 0 km
Cloud details: Mostly Cloudy 30 m
2020/11/26 17:00 LRCV 261700Z 26004KT 0200 R27/0250N FZFG BKN001 M02/M03 Q1023
LBSF - Sofia, Bulgaria
Ažurirano: 26/11/2020 18:30
Freezing fog, Oblačno
Freezing fog, Oblačno
 Pravac vetra SSZ
Vetar: SSZ 6 km/h
Temperatura: -3°C
Tačka rose: -3°C
Vlažnost: 100%
Pritisak: 1025 hPa
Pregled: Freezing Fog
Oblaci: Oblačno
Vidljivost: 0 km
Cloud details: Oblačno 30 m
2020/11/26 17:30 LBSF 261730Z 34003KT 300V010 0150 R27/0200N FZFG VV001 M03/M03 Q1025 NOSIG
LWSK - Skoplje, Makedonija
Ažurirano: 26/11/2020 18:30
Vedro
Vedro
 Pravac vetra SI
Vetar: SI 4 km/h
Temperatura: 0°C
Tačka rose: -3°C
Vlažnost: 80%
Pritisak: 1025 hPa
Pregled: Vedro
Vidljivost: greater than 10 km
2020/11/26 17:30 LWSK 261730Z 04002KT CAVOK 00/M03 Q1025 NOSIG
 
LYPG - Podgorica, Crna Gora
Ažurirano: 26/11/2020 18:00
Vedro
Vedro
 Pravac vetra IJI
Vetar: IJI 6 km/h
Temperatura: 7°C
Tačka rose: -1°C
Vlažnost: 57%
Pritisak: 1023 hPa
Pregled: Vedro
Vidljivost: greater than 10 km
2020/11/26 17:00 LYPG 261700Z 11003KT CAVOK 07/M01 Q1023 NOSIG
LQSA - Sarajevo, Bosna i Hercegovina
Ažurirano: 26/11/2020 18:00
Vedro
Vedro
 Pravac vetra JI
Vetar: JI 6 km/h
Temperatura: -1°C
Tačka rose: -2°C
Vlažnost: 93%
Pritisak: 1023 hPa
Pregled: Vedro
Vidljivost: greater than 10 km
2020/11/26 17:00 LQSA 261700Z 14003KT CAVOK M01/M02 Q1023 NOSIG
LDOS - Osijek, Hrvatksa
Ažurirano: 26/11/2020 18:30
Mist, Oblačno
Mist, Oblačno
 Pravac vetra ISI
Vetar: ISI 6 km/h
Temperatura: 3°C
Tačka rose: 2°C
Vlažnost: 93%
Pritisak: 1025 hPa
Pregled: Mist
Oblaci: Oblačno
Vidljivost: 3 km
Cloud details: Oblačno 213 m
2020/11/26 17:30 LDOS 261730Z 06003KT 020V090 3000 BR OVC007 03/02 Q1025